Time;durP1;ratioP1;P1;durP2;ratioP2;P2;SDS_P1;SDS_P2;PMS_P1;PMS_P2;Temp;Humidity;BMP_temperature;BMP_pressure;BME280_temperature;BME280_humidity;BME280_pressure;Samples;Min_cycle;Max_cycle;Signal;HPM_P1;HPM_P2
2022/04/29 00:00:36;;;;;;;10.65;7.85;;;;;;;14.73;100.00;100733.72;5049797;28;20211;-73
2022/04/29 00:03:04;;;;;;;12.95;9.10;;;;;;;14.74;100.00;100732.84;5050022;28;20696;-73
2022/04/29 00:05:31;;;;;;;10.95;8.40;;;;;;;14.76;100.00;100737.22;5050481;28;20199;-73
2022/04/29 00:07:58;;;;;;;12.23;9.00;;;;;;;14.83;100.00;100738.16;5050000;28;20203;-73
2022/04/29 00:10:25;;;;;;;16.65;10.85;;;;;;;14.63;100.00;100703.16;5048801;28;20208;-73
2022/04/29 00:12:53;;;;;;;11.90;8.77;;;;;;;14.76;100.00;100732.00;5048062;28;20269;-71
2022/04/29 00:15:21;;;;;;;11.25;8.88;;;;;;;14.70;100.00;100710.19;5012125;28;20208;-72
2022/04/29 00:17:48;;;;;;;8.20;6.78;;;;;;;14.86;100.00;100730.34;5045705;28;20223;-73
2022/04/29 00:20:16;;;;;;;8.93;6.55;;;;;;;14.56;100.00;100717.00;5049774;28;20212;-74
2022/04/29 00:22:44;;;;;;;9.48;7.90;;;;;;;14.61;100.00;100731.00;5014682;28;20195;-74
2022/04/29 00:25:12;;;;;;;12.07;8.20;;;;;;;14.71;100.00;100711.94;5050704;28;20298;-74
2022/04/29 00:27:40;;;;;;;11.75;8.18;;;;;;;14.76;100.00;100720.69;5050543;28;20213;-73
2022/04/29 00:30:10;;;;;;;11.00;7.97;;;;;;;14.79;100.00;100723.31;5050460;28;20214;-71
2022/04/29 00:32:38;;;;;;;9.40;7.22;;;;;;;14.70;100.00;100731.06;5050505;28;20591;-73
2022/04/29 00:35:06;;;;;;;12.27;8.52;;;;;;;14.60;100.00;100734.44;5015139;28;20200;-72
2022/04/29 00:37:33;;;;;;;9.57;7.47;;;;;;;14.27;100.00;100704.53;5050546;28;20226;-71
2022/04/29 00:40:00;;;;;;;11.20;8.68;;;;;;;14.63;100.00;100724.91;5031407;28;20204;-71
2022/04/29 00:42:27;;;;;;;11.05;8.00;;;;;;;14.56;100.00;100723.13;5050457;28;20676;-71
2022/04/29 00:44:53;;;;;;;13.75;8.55;;;;;;;14.26;100.00;100697.59;5050285;28;20195;-71
2022/04/29 00:47:22;;;;;;;10.55;8.35;;;;;;;14.32;100.00;100715.91;5015388;28;20196;-72
2022/04/29 00:49:50;;;;;;;10.68;8.43;;;;;;;14.08;100.00;100681.75;5050386;28;20203;-72
2022/04/29 00:52:19;;;;;;;9.75;8.52;;;;;;;14.35;100.00;100726.41;5051347;28;20200;-72
2022/04/29 00:54:53;;;;;;;11.55;7.80;;;;;;;14.39;100.00;100716.88;5014628;28;20250;-72
2022/04/29 00:57:24;;;;;;;11.68;5.90;;;;;;;14.34;100.00;100732.47;5046328;28;20192;-72
2022/04/29 00:59:58;;;;;;;13.13;9.00;;;;;;;14.16;100.00;100720.97;5053007;28;20214;-72
2022/04/29 01:02:27;;;;;;;10.80;8.82;;;;;;;13.72;100.00;100650.94;5053613;28;20194;-72
2022/04/29 01:04:59;;;;;;;11.20;8.75;;;;;;;13.86;100.00;100721.47;5053233;28;20215;-72
2022/04/29 01:07:27;;;;;;;10.77;9.30;;;;;;;14.07;100.00;100715.63;5053691;28;20191;-71
2022/04/29 01:09:54;;;;;;;12.45;9.35;;;;;;;13.96;100.00;100707.69;5053068;28;20200;-72
2022/04/29 01:12:20;;;;;;;10.88;9.23;;;;;;;14.06;100.00;100724.28;5053667;28;20640;-71
2022/04/29 01:14:47;;;;;;;12.10;9.68;;;;;;;14.13;100.00;100711.34;5053269;28;20196;-72
2022/04/29 01:17:14;;;;;;;11.43;8.27;;;;;;;14.15;100.00;100717.47;5052974;28;20196;-72
2022/04/29 01:19:42;;;;;;;14.50;9.02;;;;;;;14.20;100.00;100715.75;5052738;28;20703;-72
2022/04/29 01:22:11;;;;;;;13.25;9.35;;;;;;;13.95;100.00;100664.22;5052461;28;20203;-71
2022/04/29 01:24:38;;;;;;;14.85;9.70;;;;;;;14.21;100.00;100703.59;5053310;28;20282;-72
2022/04/29 01:27:10;;;;;;;11.50;9.10;;;;;;;14.15;100.00;100709.66;5052395;28;20717;-72
2022/04/29 01:29:39;;;;;;;12.27;8.88;;;;;;;13.97;100.00;100698.13;5052304;28;20231;-72
2022/04/29 01:32:09;;;;;;;14.68;9.75;;;;;;;14.00;100.00;100712.06;5053241;28;20204;-72
2022/04/29 01:34:36;;;;;;;12.50;9.35;;;;;;;14.12;100.00;100722.66;5052588;28;20199;-72
2022/04/29 01:37:03;;;;;;;14.57;9.10;;;;;;;14.21;100.00;100701.88;5052927;28;20211;-72
2022/04/29 01:39:31;;;;;;;12.90;9.52;;;;;;;14.38;100.00;100707.28;5052389;28;20230;-72
2022/04/29 01:41:58;;;;;;;12.43;9.40;;;;;;;14.06;100.00;100685.19;5017515;28;20192;-72
2022/04/29 01:44:25;;;;;;;10.90;8.60;;;;;;;14.11;100.00;100705.25;5052608;28;20207;-72
2022/04/29 01:46:52;;;;;;;12.07;9.18;;;;;;;13.91;100.00;100702.41;5017600;28;20211;-71
2022/04/29 01:49:19;;;;;;;10.90;9.25;;;;;;;13.75;100.00;100700.50;5052426;28;20202;-72
2022/04/29 01:51:45;;;;;;;15.30;10.23;;;;;;;13.66;100.00;100699.53;5052349;28;20210;-72
2022/04/29 01:54:12;;;;;;;12.65;10.20;;;;;;;13.83;100.00;100678.00;5033071;28;20687;-72
2022/04/29 01:56:41;;;;;;;12.55;9.70;;;;;;;14.02;100.00;100686.88;5052388;28;20200;-72
2022/04/29 01:59:08;;;;;;;10.68;9.40;;;;;;;13.76;100.00;100631.88;5052168;28;20231;-72
2022/04/29 02:01:36;;;;;;;14.13;10.18;;;;;;;14.11;100.00;100670.47;5052286;28;20191;-72
2022/04/29 02:04:03;;;;;;;12.10;10.00;;;;;;;14.14;100.00;100671.38;5052423;28;20844;-74
2022/04/29 02:06:30;;;;;;;14.40;9.68;;;;;;;14.38;100.00;100681.19;5052568;28;20257;-72
2022/04/29 02:08:57;;;;;;;15.05;10.25;;;;;;;14.39;100.00;100681.22;5016691;28;20218;-72
2022/04/29 02:11:23;;;;;;;13.20;9.80;;;;;;;14.37;100.00;100684.69;5052050;28;20593;-72
2022/04/29 02:13:52;;;;;;;16.40;9.38;;;;;;;14.48;100.00;100672.59;5051933;28;20200;-72
2022/04/29 02:16:19;;;;;;;12.32;9.02;;;;;;;14.05;100.00;100660.88;5051829;28;20192;-72
2022/04/29 02:18:46;;;;;;;13.35;10.23;;;;;;;14.11;100.00;100691.34;5016696;28;20592;-72
2022/04/29 02:21:13;;;;;;;14.57;9.82;;;;;;;13.80;100.00;100692.75;5033203;28;20196;-73
2022/04/29 02:23:40;;;;;;;11.40;9.00;;;;;;;13.72;100.00;100660.50;5051637;28;20195;-72
2022/04/29 02:26:06;;;;;;;12.60;9.95;;;;;;;13.74;100.00;100663.97;5051581;28;20215;-72
2022/04/29 02:28:34;;;;;;;12.38;8.23;;;;;;;14.00;100.00;100683.41;5051397;28;20211;-72
2022/04/29 02:31:03;;;;;;;16.02;9.25;;;;;;;14.00;100.00;100695.56;5051768;28;20207;-72
2022/04/29 02:33:30;;;;;;;13.65;9.13;;;;;;;13.97;100.00;100688.59;5051771;28;20671;-72
2022/04/29 02:35:57;;;;;;;12.00;9.75;;;;;;;14.03;100.00;100699.06;5051400;28;20196;-72
2022/04/29 02:38:24;;;;;;;15.40;10.23;;;;;;;13.65;100.00;100632.63;5051238;28;20224;-72
2022/04/29 02:40:51;;;;;;;13.20;9.90;;;;;;;13.85;100.00;100683.22;5051815;28;20210;-72
2022/04/29 02:43:18;;;;;;;14.07;9.57;;;;;;;13.98;100.00;100711.19;5051684;28;20191;-72
2022/04/29 02:45:46;;;;;;;14.52;10.48;;;;;;;13.90;100.00;100697.19;5051512;28;20690;-72
2022/04/29 02:48:15;;;;;;;15.30;10.88;;;;;;;14.00;100.00;100693.81;5050811;28;20198;-72
2022/04/29 02:50:42;;;;;;;14.85;10.60;;;;;;;14.00;100.00;100690.34;5041491;28;20269;-74
2022/04/29 02:53:09;;;;;;;14.77;11.02;;;;;;;13.96;100.00;100712.91;5050744;28;20215;-71
2022/04/29 02:55:36;;;;;;;13.13;9.73;;;;;;;13.69;100.00;100644.81;5051171;28;20273;-71
2022/04/29 02:58:03;;;;;;;18.55;11.68;;;;;;;13.73;100.00;100641.41;5051289;28;20188;-74
2022/04/29 03:00:29;;;;;;;17.42;11.02;;;;;;;13.89;100.00;100669.38;5051486;28;20203;-74
2022/04/29 03:02:56;;;;;;;12.63;9.50;;;;;;;14.04;100.00;100721.69;5050861;28;20590;-74
2022/04/29 03:05:26;;;;;;;15.07;10.77;;;;;;;14.14;100.00;100717.44;5051165;28;20196;-71
2022/04/29 03:07:53;;;;;;;15.02;11.45;;;;;;;14.12;100.00;100722.66;5050821;28;20203;-73
2022/04/29 03:10:19;;;;;;;29.35;14.40;;;;;;;13.91;100.00;100706.78;5050581;28;20206;-73
2022/04/29 03:12:46;;;;;;;14.43;10.32;;;;;;;13.76;100.00;100698.75;5050172;28;20651;-73
2022/04/29 03:15:19;;;;;;;13.05;9.57;;;;;;;13.93;100.00;100712.88;5050501;28;20203;-74
2022/04/29 03:20:35;;;;;;;13.65;10.18;;;;;;;14.04;100.00;100718.19;5050189;28;20210;-74
2022/04/29 03:23:02;;;;;;;24.58;12.18;;;;;;;14.50;100.00;100703.91;5050664;28;20682;-75
2022/04/29 03:25:29;;;;;;;13.57;9.77;;;;;;;14.21;100.00;100701.88;5050816;28;20210;-75
2022/04/29 03:27:56;;;;;;;15.75;10.93;;;;;;;14.47;100.00;100727.38;5050709;28;20195;-75
2022/04/29 03:30:23;;;;;;;15.00;9.38;;;;;;;14.10;100.00;100710.44;5050750;28;20195;-74
2022/04/29 03:32:53;;;;;;;12.23;9.70;;;;;;;14.23;100.00;100718.41;5050686;28;20200;-75
2022/04/29 03:35:20;;;;;;;13.27;10.00;;;;;;;14.31;100.00;100737.63;5050205;28;20207;-76
2022/04/29 03:37:51;;;;;;;14.60;10.90;;;;;;;14.10;100.00;100732.19;5050451;28;20199;-74
2022/04/29 03:40:20;;;;;;;13.50;10.00;;;;;;;14.13;100.00;100727.00;5049947;28;20231;-72
2022/04/29 03:42:47;;;;;;;17.65;10.88;;;;;;;13.62;100.00;100692.50;5050844;28;20200;-74
2022/04/29 03:45:13;;;;;;;14.52;10.63;;;;;;;13.74;100.00;100743.03;5050772;28;20195;-72
2022/04/29 03:47:40;;;;;;;13.45;10.60;;;;;;;13.99;100.00;100741.59;5050655;28;20627;-76
2022/04/29 03:50:08;;;;;;;12.85;9.90;;;;;;;14.07;100.00;100726.06;5048283;28;20195;-74
2022/04/29 03:52:35;;;;;;;14.43;10.15;;;;;;;14.13;100.00;100732.22;5031442;28;20188;-74
2022/04/29 03:55:03;;;;;;;11.43;8.82;;;;;;;14.24;100.00;100727.97;5050748;28;20227;-73
2022/04/29 03:57:30;;;;;;;13.75;9.50;;;;;;;14.00;100.00;100719.91;5050277;28;20282;-74
2022/04/29 03:59:57;;;;;;;14.57;10.23;;;;;;;14.20;100.00;100730.53;5050207;28;20223;-74
2022/04/29 04:02:23;;;;;;;12.18;9.95;;;;;;;14.47;100.00;100737.81;5050584;28;20223;-74
2022/04/29 04:04:50;;;;;;;12.88;8.98;;;;;;;14.41;100.00;100740.38;5049956;28;20203;-74
2022/04/29 04:07:17;;;;;;;21.83;10.00;;;;;;;14.55;100.00;100741.38;5049856;28;20211;-74
2022/04/29 04:09:44;;;;;;;12.77;10.13;;;;;;;14.52;100.00;100741.34;5050505;28;20231;-73
2022/04/29 04:12:12;;;;;;;11.75;8.45;;;;;;;14.32;100.00;100734.16;5050714;28;20196;-74
2022/04/29 04:14:39;;;;;;;13.48;9.38;;;;;;;14.42;100.00;100755.16;5050367;28;20202;-74
2022/04/29 04:17:07;;;;;;;13.38;9.68;;;;;;;14.51;100.00;100752.66;5015097;28;20207;-74
2022/04/29 04:19:34;;;;;;;18.02;10.52;;;;;;;14.34;100.00;100748.13;5049547;28;20219;-74
2022/04/29 04:22:01;;;;;;;18.00;9.75;;;;;;;14.64;100.00;100751.91;5050256;28;20196;-73
2022/04/29 04:24:27;;;;;;;13.18;10.15;;;;;;;14.41;100.00;100754.31;5049959;28;20983;-74
2022/04/29 04:26:54;;;;;;;13.43;9.88;;;;;;;14.47;100.00;100753.47;5040972;28;20685;-74
2022/04/29 04:29:22;;;;;;;14.82;11.30;;;;;;;14.82;100.00;100757.28;5054070;28;20207;-74
2022/04/29 04:31:51;;;;;;;15.88;10.63;;;;;;;14.69;100.00;100748.47;5054383;28;20199;-73
2022/04/29 04:37:03;;;;;;;18.50;10.55;;;;;;;14.98;100.00;100774.84;5054456;28;20202;-74
2022/04/29 04:39:29;;;;;;;16.17;10.43;;;;;;;14.86;100.00;100775.59;5053586;28;20223;-73
2022/04/29 04:41:56;;;;;;;14.65;9.52;;;;;;;14.83;100.00;100770.38;5035689;28;20196;-74
2022/04/29 04:44:24;;;;;;;13.95;10.02;;;;;;;14.95;100.00;100769.56;5054074;28;20251;-74
2022/04/29 04:46:51;;;;;;;16.23;10.27;;;;;;;14.92;100.00;100774.78;5018468;28;20344;-74
2022/04/29 04:49:18;;;;;;;11.30;8.85;;;;;;;15.16;100.00;100776.72;5053643;28;20722;-74
2022/04/29 04:51:45;;;;;;;17.00;9.45;;;;;;;15.22;100.00;100782.88;5053823;28;20698;-75
2022/04/29 04:54:11;;;;;;;13.30;9.50;;;;;;;15.19;100.00;100767.16;5053514;28;20231;-75
2022/04/29 04:56:38;;;;;;;16.33;9.48;;;;;;;15.25;100.00;100785.50;5053333;28;20203;-74
2022/04/29 04:59:05;;;;;;;11.40;8.50;;;;;;;15.05;100.00;100767.94;5053358;28;20251;-73
2022/04/29 05:01:33;;;;;;;12.43;10.23;;;;;;;15.19;100.00;100768.91;5053586;28;20214;-74
2022/04/29 05:04:00;;;;;;;16.05;9.25;;;;;;;14.83;100.00;100759.03;5053122;28;20214;-74
2022/04/29 05:06:27;;;;;;;16.67;10.80;;;;;;;15.28;100.00;100775.06;5053219;28;20204;-74
2022/04/29 05:08:54;;;;;;;13.25;8.52;;;;;;;15.28;100.00;100769.84;5053204;28;20195;-74
2022/04/29 05:11:20;;;;;;;12.75;9.32;;;;;;;15.36;100.00;100773.38;5052744;28;20188;-74
2022/04/29 05:13:47;;;;;;;14.90;9.30;;;;;;;15.53;100.00;100778.75;5052615;28;20195;-75
2022/04/29 05:16:14;;;;;;;11.05;9.13;;;;;;;15.46;100.00;100773.44;5018300;28;20199;-74
2022/04/29 05:18:42;;;;;;;12.88;9.95;;;;;;;15.74;100.00;100778.84;5034839;28;20203;-73
2022/04/29 05:21:09;;;;;;;11.77;9.45;;;;;;;15.47;100.00;100783.03;5052895;28;20655;-73
2022/04/29 05:23:37;;;;;;;10.95;8.60;;;;;;;15.54;100.00;100787.47;5053791;28;20295;-72
2022/04/29 05:26:04;;;;;;;13.43;9.50;;;;;;;15.64;100.00;100794.47;5052600;28;20223;-72
2022/04/29 05:28:31;;;;;;;12.00;8.77;;;;;;;15.85;100.00;100782.41;5015122;28;20253;-72
2022/04/29 05:30:58;;;;;;;17.38;10.80;;;;;;;16.04;100.00;100788.59;5052013;28;20216;-72
2022/04/29 05:33:25;;;;;;;12.40;9.32;;;;;;;16.09;100.00;100794.69;5053158;28;20714;-71
2022/04/29 05:35:54;;;;;;;13.43;10.13;;;;;;;16.25;100.00;100799.13;5053687;28;20200;-72
2022/04/29 05:38:21;;;;;;;16.70;10.68;;;;;;;15.99;100.00;100782.47;5034093;28;20200;-71
2022/04/29 05:43:32;;;;;;;14.05;10.00;;;;;;;16.19;100.00;100804.38;5044752;28;20592;-71
2022/04/29 05:45:59;;;;;;;15.68;10.30;;;;;;;16.43;100.00;100794.81;5052984;28;20195;-71
2022/04/29 05:48:26;;;;;;;16.63;10.60;;;;;;;16.10;100.00;100800.81;5052912;28;20200;-72
2022/04/29 05:50:54;;;;;;;13.48;10.35;;;;;;;16.44;100.00;100802.69;5053025;28;20733;-71
2022/04/29 05:53:21;;;;;;;17.77;11.57;;;;;;;16.70;100.00;100797.53;5052091;28;20211;-70
2022/04/29 05:55:47;;;;;;;15.45;10.57;;;;;;;16.25;100.00;100791.28;5052049;28;20235;-73
2022/04/29 05:58:14;;;;;;;18.02;11.02;;;;;;;16.71;100.00;100807.13;5052305;28;20195;-74
2022/04/29 06:00:41;;;;;;;15.05;11.18;;;;;;;16.46;100.00;100800.06;5052052;28;20220;-74
2022/04/29 06:03:08;;;;;;;20.10;11.35;;;;;;;16.80;100.00;100822.88;5052266;28;20219;-74
2022/04/29 06:05:34;;;;;;;17.88;12.18;;;;;;;16.67;100.00;100805.38;5052305;28;20200;-74
2022/04/29 06:08:03;;;;;;;16.15;11.75;;;;;;;16.99;100.00;100797.56;5052108;28;20723;-74
2022/04/29 06:10:30;;;;;;;16.20;11.43;;;;;;;17.18;100.00;100815.03;5052207;28;20200;-74
2022/04/29 06:12:56;;;;;;;15.88;11.45;;;;;;;17.12;100.00;100817.66;5051879;28;20207;-74
2022/04/29 06:15:23;;;;;;;17.50;11.77;;;;;;;17.28;100.00;100820.28;5051929;28;20206;-74
2022/04/29 06:17:50;;;;;;;23.13;11.68;;;;;;;17.57;100.00;100798.44;5017010;28;20598;-73
2022/04/29 06:20:17;;;;;;;18.67;11.35;;;;;;;17.34;100.00;100812.41;5051610;28;20615;-73
2022/04/29 06:22:44;;;;;;;16.45;11.77;;;;;;;17.25;100.00;100819.41;5051887;28;20234;-73
2022/04/29 06:25:13;;;;;;;15.75;12.48;;;;;;;17.01;100.00;100798.44;5051718;28;20208;-73
2022/04/29 06:27:41;;;;;;;17.48;12.45;;;;;;;17.28;100.00;100825.53;5051722;28;20249;-73
2022/04/29 06:30:09;;;;;;;17.88;11.25;;;;;;;17.30;100.00;100823.75;5051506;28;20286;-73
2022/04/29 06:32:36;;;;;;;15.82;11.63;;;;;;;17.23;100.00;100824.63;5033157;28;20207;-73
2022/04/29 06:35:04;;;;;;;21.90;11.77;;;;;;;17.11;100.00;100824.66;5051622;28;20603;-73
2022/04/29 06:37:31;;;;;;;17.02;11.85;;;;;;;17.57;100.00;100820.28;5051458;28;20294;-73
2022/04/29 06:39:57;;;;;;;16.25;11.80;;;;;;;18.02;100.00;100834.16;5051459;28;20318;-73
2022/04/29 06:42:25;;;;;;;15.43;11.38;;;;;;;18.10;100.00;100833.25;5051382;28;20200;-73
2022/04/29 06:44:52;;;;;;;15.40;11.60;;;;;;;18.10;100.00;100809.63;5051171;28;20628;-74
2022/04/29 06:47:19;;;;;;;20.48;12.30;;;;;;;17.97;100.00;100834.19;5051367;28;20265;-73
2022/04/29 06:49:46;;;;;;;17.23;12.00;;;;;;;18.12;100.00;100831.47;5050718;28;20227;-73
2022/04/29 06:52:13;;;;;;;16.17;12.43;;;;;;;17.91;100.00;100815.81;5049124;28;20196;-73
2022/04/29 06:54:40;;;;;;;20.98;12.68;;;;;;;18.04;100.00;100820.16;5051243;28;20227;-73
2022/04/29 06:57:09;;;;;;;18.27;11.80;;;;;;;18.23;100.00;100834.06;5051124;28;20587;-73
2022/04/29 06:59:37;;;;;;;17.25;11.05;;;;;;;18.29;100.00;100834.94;5050980;28;20219;-73
2022/04/29 07:02:04;;;;;;;15.38;11.55;;;;;;;17.97;100.00;100821.06;5050864;28;20196;-73
2022/04/29 07:04:32;;;;;;;14.10;10.38;;;;;;;17.76;100.00;100829.00;5051312;28;20599;-73
2022/04/29 07:06:59;;;;;;;18.17;12.45;;;;;;;17.80;100.00;100823.72;5051079;28;20218;-73
2022/04/29 07:09:26;;;;;;;19.00;12.63;;;;;;;17.79;100.00;100832.50;5050975;28;20195;-73
2022/04/29 07:11:54;;;;;;;18.08;12.40;;;;;;;18.10;100.00;100838.50;5048824;28;20192;-73
2022/04/29 07:14:22;;;;;;;18.38;12.40;;;;;;;18.00;100.00;100842.03;5050973;28;20298;-73
2022/04/29 07:16:50;;;;;;;22.00;13.20;;;;;;;18.20;100.00;100845.47;5050844;28;20217;-73
2022/04/29 07:19:17;;;;;;;15.35;11.38;;;;;;;17.70;100.00;100811.50;5050979;28;20195;-73
2022/04/29 07:21:44;;;;;;;15.25;11.15;;;;;;;18.06;100.00;100842.00;5050656;28;20202;-73
2022/04/29 07:24:12;;;;;;;16.85;10.68;;;;;;;18.72;100.00;100845.25;5051073;28;20214;-73
2022/04/29 07:26:39;;;;;;;14.82;10.98;;;;;;;19.04;98.61;100847.66;5050815;28;20467;-73
2022/04/29 07:29:06;;;;;;;14.30;11.00;;;;;;;19.28;94.88;100832.56;5050487;28;20596;-73
2022/04/29 07:31:33;;;;;;;13.90;10.60;;;;;;;19.79;97.16;100852.31;5050839;28;20207;-72
2022/04/29 07:34:01;;;;;;;16.35;10.30;;;;;;;20.10;88.46;100847.56;5050369;28;20714;-72
2022/04/29 07:42:02;;;;;;;13.63;10.43;;;;;;;20.06;89.13;100866.91;5050406;28;20256;-72
2022/04/29 07:44:29;;;;;;;12.82;10.15;;;;;;;20.38;84.17;100874.47;5050445;28;20199;-72
2022/04/29 07:46:56;;;;;;;13.70;9.93;;;;;;;19.80;85.09;100853.16;5050310;28;20196;-72
2022/04/29 07:49:24;;;;;;;11.13;9.75;;;;;;;19.57;88.56;100874.44;5050114;28;20660;-72
2022/04/29 07:51:51;;;;;;;14.02;10.75;;;;;;;18.97;93.22;100854.72;5050368;28;20571;-71
2022/04/29 07:54:18;;;;;;;14.65;10.85;;;;;;;18.58;98.74;100849.72;5050077;28;20239;-72
2022/04/29 07:56:45;;;;;;;17.58;10.57;;;;;;;18.59;100.00;100869.81;5050405;28;20261;-71
2022/04/29 07:59:12;;;;;;;13.10;10.93;;;;;;;18.94;100.00;100867.88;5050485;28;20207;-72
2022/04/29 08:01:43;;;;;;;16.67;11.05;;;;;;;18.82;97.32;100839.06;5052453;28;20230;-72
2022/04/29 08:04:11;;;;;;;15.93;10.98;;;;;;;19.12;96.17;100867.75;5054431;28;20261;-72
2022/04/29 08:06:40;;;;;;;14.88;11.13;;;;;;;19.63;93.62;100870.88;5054399;28;20694;-72
2022/04/29 08:09:08;;;;;;;14.40;11.38;;;;;;;18.99;94.47;100839.81;5054360;28;20579;-72
2022/04/29 08:11:35;;;;;;;17.52;12.15;;;;;;;19.50;94.11;100874.50;5054368;28;20199;-73
2022/04/29 08:14:02;;;;;;;11.55;10.35;;;;;;;18.59;98.97;100854.06;5019079;28;20195;-72
2022/04/29 08:16:32;;;;;;;13.80;11.70;;;;;;;18.97;98.76;100873.13;5052018;28;20257;-72
2022/04/29 08:18:58;;;;;;;15.25;11.88;;;;;;;19.22;94.15;100843.16;5054260;28;20195;-71
2022/04/29 08:21:25;;;;;;;12.77;11.13;;;;;;;19.60;90.73;100836.69;5035277;28;20226;-72
2022/04/29 08:23:53;;;;;;;17.88;11.50;;;;;;;19.69;91.40;100878.72;5054261;28;20663;-72
2022/04/29 08:26:20;;;;;;;15.30;11.82;;;;;;;19.89;88.66;100874.13;5053939;28;20712;-73
2022/04/29 08:28:47;;;;;;;21.73;12.60;;;;;;;20.20;86.46;100875.53;5053836;28;20199;-72
2022/04/29 08:31:14;;;;;;;16.92;12.20;;;;;;;20.42;84.14;100856.84;5054051;28;20199;-72
2022/04/29 08:33:41;;;;;;;13.57;11.05;;;;;;;20.25;83.99;100851.78;5053779;28;20215;-72
2022/04/29 08:36:08;;;;;;;19.90;12.23;;;;;;;20.37;83.28;100866.59;5053939;28;20211;-72
2022/04/29 08:38:34;;;;;;;16.65;12.35;;;;;;;20.08;86.95;100867.75;5053717;28;20234;-72
2022/04/29 08:41:03;;;;;;;14.98;11.82;;;;;;;19.47;89.53;100866.66;5035082;28;20231;-72
2022/04/29 08:43:32;;;;;;;15.32;12.23;;;;;;;19.73;88.99;100867.25;5053657;28;20195;-72
2022/04/29 08:45:59;;;;;;;18.77;12.23;;;;;;;19.57;91.71;100828.84;5053492;28;20196;-72
2022/04/29 08:48:29;;;;;;;15.25;11.90;;;;;;;20.06;89.32;100856.38;5018671;28;20203;-72
2022/04/29 08:50:58;;;;;;;17.63;11.50;;;;;;;20.83;82.35;100856.31;5053405;28;20203;-72
2022/04/29 08:53:24;;;;;;;17.20;12.40;;;;;;;21.33;77.72;100852.94;5053236;28;20628;-72
2022/04/29 08:58:39;;;;;;;16.95;12.73;;;;;;;21.63;73.91;100849.75;5053400;28;20214;-72
2022/04/29 09:01:09;;;;;;;16.02;12.57;;;;;;;21.70;71.19;100839.03;5053552;28;20223;-72
2022/04/29 09:03:37;;;;;;;13.20;11.20;;;;;;;21.19;72.69;100840.81;5053249;28;20193;-72
2022/04/29 09:06:05;;;;;;;17.80;13.25;;;;;;;21.05;77.26;100826.94;5034682;28;20249;-72
2022/04/29 09:08:39;;;;;;;16.45;11.75;;;;;;;21.30;74.46;100842.44;5053214;28;20642;-72
2022/04/29 09:11:07;;;;;;;14.32;11.68;;;;;;;21.42;74.06;100831.66;5053101;28;20210;-72
2022/04/29 09:13:37;;;;;;;14.63;11.75;;;;;;;21.38;73.28;100835.22;5052249;28;20290;-72
2022/04/29 09:16:10;;;;;;;16.33;12.73;;;;;;;21.82;73.12;100837.09;5053259;28;20679;-72
2022/04/29 09:18:39;;;;;;;17.05;12.18;;;;;;;21.44;71.95;100806.13;5053114;28;20272;-73
2022/04/29 09:21:09;;;;;;;16.33;11.98;;;;;;;21.95;71.34;100834.22;5046824;28;20255;-73
2022/04/29 09:23:37;;;;;;;16.20;11.45;;;;;;;21.22;70.64;100824.94;5032849;28;20197;-72
2022/04/29 09:26:07;;;;;;;25.63;14.65;;;;;;;21.87;69.69;100835.25;5033041;28;20219;-72
2022/04/29 09:28:35;;;;;;;15.80;12.88;;;;;;;20.92;79.49;100830.69;5032877;28;20200;-75
2022/04/29 09:31:03;;;;;;;15.45;11.65;;;;;;;21.18;79.46;100823.25;5032999;28;20208;-75
2022/04/29 09:33:35;;;;;;;15.55;11.90;;;;;;;20.37;83.76;100832.34;5032771;28;20214;-74
2022/04/29 09:36:01;;;;;;;14.85;10.75;;;;;;;20.44;89.28;100832.22;5032680;28;20204;-75
2022/04/29 09:41:22;;;;;;;20.13;14.35;;;;;;;20.79;82.81;100831.75;5032846;28;20632;-72
2022/04/29 09:43:49;;;;;;;16.38;13.25;;;;;;;20.31;83.91;100827.16;5032688;28;20203;-72
2022/04/29 09:46:21;;;;;;;17.92;13.65;;;;;;;20.82;80.52;100808.00;5032522;28;20200;-72
2022/04/29 09:48:58;;;;;;;16.88;13.18;;;;;;;21.04;80.04;100826.97;5032781;28;20212;-72
2022/04/29 09:51:45;;;;;;;18.65;13.30;;;;;;;21.11;78.66;100829.53;5032621;28;20204;-72
2022/04/29 09:54:24;;;;;;;17.83;11.88;;;;;;;19.95;85.80;100805.59;5032244;28;20290;-74
2022/04/29 09:57:05;;;;;;;15.32;12.25;;;;;;;20.39;84.90;100822.66;5015547;28;20192;-74
2022/04/29 09:59:34;;;;;;;14.63;11.38;;;;;;;20.33;82.67;100825.38;5032462;28;20211;-74
2022/04/29 10:02:01;;;;;;;14.30;10.93;;;;;;;20.66;80.98;100798.53;5032307;28;20259;-75
2022/04/29 10:04:35;;;;;;;13.25;10.75;;;;;;;20.68;77.63;100804.69;5032263;28;20204;-74
2022/04/29 10:07:04;;;;;;;12.88;10.57;;;;;;;21.02;79.09;100805.91;5031997;28;20592;-72
2022/04/29 10:09:33;;;;;;;16.35;12.05;;;;;;;21.38;76.24;100815.00;5032279;28;20219;-74
2022/04/29 10:12:02;;;;;;;14.50;11.45;;;;;;;19.57;84.10;100807.78;5032270;28;20241;-75
2022/04/29 10:14:31;;;;;;;12.10;10.05;;;;;;;19.91;83.86;100764.41;5032229;28;20576;-80
2022/04/29 10:22:38;;;;;;;8.45;7.30;;;;;;;20.28;76.98;100820.16;5031803;28;20722;-74
2022/04/29 10:25:09;;;;;;;10.98;8.60;;;;;;;20.19;78.55;100818.47;5030903;28;20266;-74
2022/04/29 10:27:39;;;;;;;9.77;8.77;;;;;;;19.96;80.48;100822.28;5031697;28;20200;-74
2022/04/29 10:30:07;;;;;;;10.52;9.50;;;;;;;20.44;77.38;100815.56;5031762;28;20200;-74
2022/04/29 10:33:04;;;;;;;12.73;9.52;;;;;;;21.05;74.92;100824.31;5031646;28;20641;-74
2022/04/29 10:35:56;;;;;;;10.63;9.40;;;;;;;21.26;72.36;100831.03;4970407;28;20206;-74
2022/04/29 10:38:27;;;;;;;11.70;10.23;;;;;;;21.42;68.97;100826.38;4970379;28;20205;-74
2022/04/29 10:41:12;;;;;;;11.52;9.75;;;;;;;21.44;71.20;100808.75;4970283;28;20237;-74
2022/04/29 10:43:40;;;;;;;11.43;9.63;;;;;;;21.03;70.99;100819.97;4970384;28;20233;-73
2022/04/29 10:46:19;;;;;;;13.77;10.57;;;;;;;21.12;69.15;100818.06;4970535;28;20206;-73
2022/04/29 10:48:47;;;;;;;16.77;11.20;;;;;;;20.71;73.66;100810.78;4970429;28;20198;-73
2022/04/29 10:51:19;;;;;;;11.48;9.70;;;;;;;20.60;72.61;100823.25;4970298;28;20202;-74
2022/04/29 10:53:47;;;;;;;14.35;11.77;;;;;;;20.74;74.12;100808.09;4970364;28;20570;-74
2022/04/29 10:56:39;;;;;;;10.32;8.77;;;;;;;20.92;69.74;100814.84;4970399;28;20198;-74
2022/04/29 10:59:22;;;;;;;9.35;7.88;;;;;;;20.74;68.95;100786.13;4970330;28;20198;-73
2022/04/29 11:01:51;;;;;;;10.68;9.40;;;;;;;20.54;71.47;100781.16;4970196;28;20233;-75
2022/04/29 11:04:44;;;;;;;11.18;10.00;;;;;;;21.09;69.84;100806.66;4970194;28;20202;-75
2022/04/29 11:07:42;;;;;;;11.77;9.57;;;;;;;21.71;67.16;100802.97;4970158;28;20206;-74
2022/04/29 11:10:10;;;;;;;12.57;8.02;;;;;;;21.60;64.43;100775.91;4970327;28;20198;-76
2022/04/29 11:12:39;;;;;;;14.63;8.30;;;;;;;22.08;62.62;100798.72;4994611;28;20595;-72
2022/04/29 11:15:14;;;;;;;9.57;8.68;;;;;;;22.19;61.35;100798.50;5030833;28;20203;-71
2022/04/29 11:17:41;;;;;;;8.63;7.82;;;;;;;21.93;61.49;100806.09;5030777;28;20211;-71
2022/04/29 11:20:16;;;;;;;12.65;9.65;;;;;;;21.15;65.46;100801.34;5030762;28;20211;-70
2022/04/29 11:25:52;;;;;;;10.80;9.63;;;;;;;22.17;64.71;100795.03;5030765;28;20275;-71
2022/04/29 11:28:19;;;;;;;9.77;8.77;;;;;;;22.26;61.21;100796.63;5031015;28;20210;-71
2022/04/29 11:30:47;;;;;;;9.52;8.45;;;;;;;21.99;62.09;100798.03;5030659;28;20211;-71
2022/04/29 11:33:14;;;;;;;10.05;9.02;;;;;;;21.73;63.35;100764.19;5030734;28;20192;-71
2022/04/29 11:35:42;;;;;;;19.65;9.57;;;;;;;21.63;64.96;100791.66;5030448;28;20659;-71
2022/04/29 11:38:11;;;;;;;11.13;9.95;;;;;;;21.81;66.66;100786.03;5030648;28;20278;-71
2022/04/29 11:40:40;;;;;;;13.98;11.05;;;;;;;22.32;63.88;100775.34;5030646;28;20218;-74